sensor_id;sensor_type;location;lat;lon;timestamp;P1;durP1;ratioP1;P2;durP2;ratioP2
68353;SDS011;55274;43.060;25.618;2024-02-04T00:01:44;18.42;;;7.95;;
68353;SDS011;55274;43.060;25.618;2024-02-04T00:04:10;19.65;;;9.48;;
68353;SDS011;55274;43.060;25.618;2024-02-04T00:06:35;19.00;;;9.20;;
68353;SDS011;55274;43.060;25.618;2024-02-04T00:09:01;21.20;;;9.15;;
68353;SDS011;55274;43.060;25.618;2024-02-04T00:11:28;23.35;;;9.98;;
68353;SDS011;55274;43.060;25.618;2024-02-04T00:13:54;21.85;;;9.48;;
68353;SDS011;55274;43.060;25.618;2024-02-04T00:16:20;18.65;;;9.02;;
68353;SDS011;55274;43.060;25.618;2024-02-04T00:18:46;19.45;;;9.18;;
68353;SDS011;55274;43.060;25.618;2024-02-04T00:21:12;19.67;;;9.02;;
68353;SDS011;55274;43.060;25.618;2024-02-04T00:23:38;19.38;;;8.63;;
68353;SDS011;55274;43.060;25.618;2024-02-04T00:26:03;15.23;;;8.43;;
68353;SDS011;55274;43.060;25.618;2024-02-04T00:28:29;17.92;;;9.10;;
68353;SDS011;55274;43.060;25.618;2024-02-04T00:30:55;20.65;;;9.63;;
68353;SDS011;55274;43.060;25.618;2024-02-04T00:33:23;19.00;;;9.48;;
68353;SDS011;55274;43.060;25.618;2024-02-04T00:35:48;18.02;;;9.15;;
68353;SDS011;55274;43.060;25.618;2024-02-04T00:38:14;20.67;;;9.82;;
68353;SDS011;55274;43.060;25.618;2024-02-04T00:40:40;21.52;;;9.88;;
68353;SDS011;55274;43.060;25.618;2024-02-04T00:43:06;21.92;;;9.43;;
68353;SDS011;55274;43.060;25.618;2024-02-04T00:45:32;21.80;;;9.13;;
68353;SDS011;55274;43.060;25.618;2024-02-04T00:47:58;21.60;;;9.63;;
68353;SDS011;55274;43.060;25.618;2024-02-04T00:50:24;19.55;;;9.27;;
68353;SDS011;55274;43.060;25.618;2024-02-04T00:52:49;17.63;;;9.00;;
68353;SDS011;55274;43.060;25.618;2024-02-04T00:55:18;15.82;;;8.23;;
68353;SDS011;55274;43.060;25.618;2024-02-04T00:57:44;18.13;;;8.45;;
68353;SDS011;55274;43.060;25.618;2024-02-04T01:00:28;20.45;;;10.13;;
68353;SDS011;55274;43.060;25.618;2024-02-04T01:02:54;20.80;;;9.70;;
68353;SDS011;55274;43.060;25.618;2024-02-04T01:05:20;17.98;;;9.48;;
68353;SDS011;55274;43.060;25.618;2024-02-04T01:07:46;18.58;;;9.05;;
68353;SDS011;55274;43.060;25.618;2024-02-04T01:10:12;18.55;;;8.98;;
68353;SDS011;55274;43.060;25.618;2024-02-04T01:12:37;19.92;;;9.02;;
68353;SDS011;55274;43.060;25.618;2024-02-04T01:15:03;18.17;;;9.23;;
68353;SDS011;55274;43.060;25.618;2024-02-04T01:17:31;18.30;;;9.88;;
68353;SDS011;55274;43.060;25.618;2024-02-04T01:19:58;19.15;;;8.80;;
68353;SDS011;55274;43.060;25.618;2024-02-04T01:22:24;18.40;;;9.32;;
68353;SDS011;55274;43.060;25.618;2024-02-04T01:24:52;22.10;;;8.88;;
68353;SDS011;55274;43.060;25.618;2024-02-04T01:27:18;19.13;;;9.30;;
68353;SDS011;55274;43.060;25.618;2024-02-04T01:29:44;20.65;;;9.45;;
68353;SDS011;55274;43.060;25.618;2024-02-04T01:32:10;24.17;;;9.25;;
68353;SDS011;55274;43.060;25.618;2024-02-04T01:34:36;22.35;;;9.10;;
68353;SDS011;55274;43.060;25.618;2024-02-04T01:37:01;17.55;;;8.43;;
68353;SDS011;55274;43.060;25.618;2024-02-04T01:39:27;17.92;;;8.52;;
68353;SDS011;55274;43.060;25.618;2024-02-04T01:41:53;19.02;;;8.93;;
68353;SDS011;55274;43.060;25.618;2024-02-04T01:44:19;20.38;;;9.50;;
68353;SDS011;55274;43.060;25.618;2024-02-04T01:46:46;18.00;;;10.20;;
68353;SDS011;55274;43.060;25.618;2024-02-04T01:49:12;16.83;;;9.65;;
68353;SDS011;55274;43.060;25.618;2024-02-04T01:51:38;18.13;;;9.00;;
68353;SDS011;55274;43.060;25.618;2024-02-04T01:54:04;17.70;;;9.10;;
68353;SDS011;55274;43.060;25.618;2024-02-04T01:56:31;17.15;;;9.13;;
68353;SDS011;55274;43.060;25.618;2024-02-04T01:58:57;16.17;;;9.13;;
68353;SDS011;55274;43.060;25.618;2024-02-04T02:01:24;17.77;;;8.48;;
68353;SDS011;55274;43.060;25.618;2024-02-04T02:03:51;19.02;;;8.98;;
68353;SDS011;55274;43.060;25.618;2024-02-04T02:06:17;20.08;;;9.88;;
68353;SDS011;55274;43.060;25.618;2024-02-04T02:08:43;18.60;;;9.30;;
68353;SDS011;55274;43.060;25.618;2024-02-04T02:11:18;19.80;;;9.93;;
68353;SDS011;55274;43.060;25.618;2024-02-04T02:13:53;20.58;;;9.52;;
68353;SDS011;55274;43.060;25.618;2024-02-04T02:16:25;19.33;;;9.45;;
68353;SDS011;55274;43.060;25.618;2024-02-04T02:18:58;19.35;;;8.93;;
68353;SDS011;55274;43.060;25.618;2024-02-04T02:21:38;17.23;;;9.05;;
68353;SDS011;55274;43.060;25.618;2024-02-04T02:24:34;19.17;;;8.55;;
68353;SDS011;55274;43.060;25.618;2024-02-04T02:27:06;19.77;;;9.38;;
68353;SDS011;55274;43.060;25.618;2024-02-04T02:29:32;19.35;;;8.93;;
68353;SDS011;55274;43.060;25.618;2024-02-04T02:31:59;22.02;;;9.73;;
68353;SDS011;55274;43.060;25.618;2024-02-04T02:34:26;21.38;;;9.52;;
68353;SDS011;55274;43.060;25.618;2024-02-04T02:36:57;18.83;;;9.25;;
68353;SDS011;55274;43.060;25.618;2024-02-04T02:40:01;17.98;;;9.25;;
68353;SDS011;55274;43.060;25.618;2024-02-04T02:42:32;17.63;;;9.35;;
68353;SDS011;55274;43.060;25.618;2024-02-04T02:44:59;18.23;;;8.75;;
68353;SDS011;55274;43.060;25.618;2024-02-04T02:47:26;18.30;;;9.15;;
68353;SDS011;55274;43.060;25.618;2024-02-04T02:49:54;18.85;;;8.45;;
68353;SDS011;55274;43.060;25.618;2024-02-04T02:52:21;18.33;;;9.45;;
68353;SDS011;55274;43.060;25.618;2024-02-04T02:54:47;14.70;;;8.38;;
68353;SDS011;55274;43.060;25.618;2024-02-04T02:57:13;18.55;;;9.07;;
68353;SDS011;55274;43.060;25.618;2024-02-04T02:59:38;20.65;;;9.02;;
68353;SDS011;55274;43.060;25.618;2024-02-04T03:02:04;18.23;;;9.00;;
68353;SDS011;55274;43.060;25.618;2024-02-04T03:04:30;19.23;;;8.73;;
68353;SDS011;55274;43.060;25.618;2024-02-04T03:06:56;16.08;;;8.70;;
68353;SDS011;55274;43.060;25.618;2024-02-04T03:09:22;18.30;;;9.02;;
68353;SDS011;55274;43.060;25.618;2024-02-04T03:11:47;23.45;;;10.18;;
68353;SDS011;55274;43.060;25.618;2024-02-04T03:14:16;20.15;;;9.82;;
68353;SDS011;55274;43.060;25.618;2024-02-04T03:16:45;21.23;;;10.13;;
68353;SDS011;55274;43.060;25.618;2024-02-04T03:19:11;20.55;;;9.90;;
68353;SDS011;55274;43.060;25.618;2024-02-04T03:21:37;18.55;;;9.10;;
68353;SDS011;55274;43.060;25.618;2024-02-04T03:24:03;17.70;;;9.50;;
68353;SDS011;55274;43.060;25.618;2024-02-04T03:26:29;17.92;;;9.13;;
68353;SDS011;55274;43.060;25.618;2024-02-04T03:28:55;17.58;;;8.68;;
68353;SDS011;55274;43.060;25.618;2024-02-04T03:31:21;17.98;;;9.07;;
68353;SDS011;55274;43.060;25.618;2024-02-04T03:33:48;20.08;;;9.20;;
68353;SDS011;55274;43.060;25.618;2024-02-04T03:36:18;17.45;;;10.07;;
68353;SDS011;55274;43.060;25.618;2024-02-04T03:38:48;18.60;;;9.93;;
68353;SDS011;55274;43.060;25.618;2024-02-04T03:41:14;26.33;;;9.52;;
68353;SDS011;55274;43.060;25.618;2024-02-04T03:43:40;22.50;;;10.18;;
68353;SDS011;55274;43.060;25.618;2024-02-04T03:46:05;20.58;;;9.70;;
68353;SDS011;55274;43.060;25.618;2024-02-04T03:48:31;17.85;;;9.30;;
68353;SDS011;55274;43.060;25.618;2024-02-04T03:50:58;18.80;;;10.13;;
68353;SDS011;55274;43.060;25.618;2024-02-04T03:53:25;19.25;;;9.48;;
68353;SDS011;55274;43.060;25.618;2024-02-04T03:55:51;20.90;;;8.82;;
68353;SDS011;55274;43.060;25.618;2024-02-04T03:58:17;20.85;;;9.65;;
68353;SDS011;55274;43.060;25.618;2024-02-04T04:00:45;19.80;;;10.15;;
68353;SDS011;55274;43.060;25.618;2024-02-04T04:03:10;18.00;;;9.00;;
68353;SDS011;55274;43.060;25.618;2024-02-04T04:05:36;25.52;;;10.00;;
68353;SDS011;55274;43.060;25.618;2024-02-04T04:08:02;11.73;;;5.88;;
68353;SDS011;55274;43.060;25.618;2024-02-04T04:10:28;17.15;;;9.43;;
68353;SDS011;55274;43.060;25.618;2024-02-04T04:12:54;17.35;;;6.90;;
68353;SDS011;55274;43.060;25.618;2024-02-04T04:15:20;14.05;;;7.53;;
68353;SDS011;55274;43.060;25.618;2024-02-04T04:17:45;15.60;;;7.25;;
68353;SDS011;55274;43.060;25.618;2024-02-04T04:20:11;15.10;;;5.80;;
68353;SDS011;55274;43.060;25.618;2024-02-04T04:22:40;16.65;;;7.03;;
68353;SDS011;55274;43.060;25.618;2024-02-04T04:25:06;13.25;;;6.45;;
68353;SDS011;55274;43.060;25.618;2024-02-04T04:27:32;26.52;;;7.72;;
68353;SDS011;55274;43.060;25.618;2024-02-04T04:29:58;10.93;;;5.10;;
68353;SDS011;55274;43.060;25.618;2024-02-04T04:32:24;18.73;;;6.28;;
68353;SDS011;55274;43.060;25.618;2024-02-04T04:34:50;15.55;;;6.57;;
68353;SDS011;55274;43.060;25.618;2024-02-04T04:37:16;7.63;;;3.63;;
68353;SDS011;55274;43.060;25.618;2024-02-04T04:39:41;10.13;;;5.53;;
68353;SDS011;55274;43.060;25.618;2024-02-04T04:42:07;15.32;;;6.38;;
68353;SDS011;55274;43.060;25.618;2024-02-04T04:44:33;7.65;;;3.67;;
68353;SDS011;55274;43.060;25.618;2024-02-04T04:46:59;3.30;;;1.80;;
68353;SDS011;55274;43.060;25.618;2024-02-04T04:49:25;4.75;;;2.60;;
68353;SDS011;55274;43.060;25.618;2024-02-04T04:51:50;7.15;;;3.00;;
68353;SDS011;55274;43.060;25.618;2024-02-04T04:54:16;7.85;;;3.67;;
68353;SDS011;55274;43.060;25.618;2024-02-04T04:56:42;6.57;;;2.90;;
68353;SDS011;55274;43.060;25.618;2024-02-04T04:59:08;6.97;;;2.83;;
68353;SDS011;55274;43.060;25.618;2024-02-04T05:01:34;12.35;;;5.30;;
68353;SDS011;55274;43.060;25.618;2024-02-04T05:04:00;5.28;;;2.85;;
68353;SDS011;55274;43.060;25.618;2024-02-04T05:06:26;7.22;;;2.50;;
68353;SDS011;55274;43.060;25.618;2024-02-04T05:08:52;5.88;;;2.88;;
68353;SDS011;55274;43.060;25.618;2024-02-04T05:11:18;7.88;;;3.83;;
68353;SDS011;55274;43.060;25.618;2024-02-04T05:13:44;10.85;;;4.78;;
68353;SDS011;55274;43.060;25.618;2024-02-04T05:16:09;7.63;;;4.45;;
68353;SDS011;55274;43.060;25.618;2024-02-04T05:18:35;14.52;;;6.18;;
68353;SDS011;55274;43.060;25.618;2024-02-04T05:21:01;5.70;;;2.78;;
68353;SDS011;55274;43.060;25.618;2024-02-04T05:23:28;6.38;;;3.20;;
68353;SDS011;55274;43.060;25.618;2024-02-04T05:25:54;7.20;;;2.20;;
68353;SDS011;55274;43.060;25.618;2024-02-04T05:28:19;5.75;;;2.65;;
68353;SDS011;55274;43.060;25.618;2024-02-04T05:30:45;7.82;;;2.95;;
68353;SDS011;55274;43.060;25.618;2024-02-04T05:33:14;10.65;;;6.55;;
68353;SDS011;55274;43.060;25.618;2024-02-04T05:35:41;5.88;;;4.18;;
68353;SDS011;55274;43.060;25.618;2024-02-04T05:38:08;9.48;;;5.47;;
68353;SDS011;55274;43.060;25.618;2024-02-04T05:40:35;8.45;;;3.28;;
68353;SDS011;55274;43.060;25.618;2024-02-04T05:43:01;6.07;;;3.28;;
68353;SDS011;55274;43.060;25.618;2024-02-04T05:45:31;10.02;;;5.63;;
68353;SDS011;55274;43.060;25.618;2024-02-04T05:47:57;5.95;;;2.88;;
68353;SDS011;55274;43.060;25.618;2024-02-04T05:50:23;6.22;;;1.98;;
68353;SDS011;55274;43.060;25.618;2024-02-04T05:52:49;4.93;;;2.40;;
68353;SDS011;55274;43.060;25.618;2024-02-04T05:55:15;4.70;;;2.72;;
68353;SDS011;55274;43.060;25.618;2024-02-04T05:57:41;5.25;;;1.92;;
68353;SDS011;55274;43.060;25.618;2024-02-04T06:00:08;3.42;;;2.05;;
68353;SDS011;55274;43.060;25.618;2024-02-04T06:02:38;3.85;;;1.52;;
68353;SDS011;55274;43.060;25.618;2024-02-04T06:05:03;2.90;;;1.70;;
68353;SDS011;55274;43.060;25.618;2024-02-04T06:07:29;2.85;;;1.60;;
68353;SDS011;55274;43.060;25.618;2024-02-04T06:09:55;3.38;;;1.70;;
68353;SDS011;55274;43.060;25.618;2024-02-04T06:12:21;2.38;;;1.67;;
68353;SDS011;55274;43.060;25.618;2024-02-04T06:14:47;4.20;;;2.40;;
68353;SDS011;55274;43.060;25.618;2024-02-04T06:17:13;6.50;;;3.08;;
68353;SDS011;55274;43.060;25.618;2024-02-04T06:19:39;6.75;;;3.33;;
68353;SDS011;55274;43.060;25.618;2024-02-04T06:22:04;7.18;;;3.20;;
68353;SDS011;55274;43.060;25.618;2024-02-04T06:24:30;4.90;;;2.40;;
68353;SDS011;55274;43.060;25.618;2024-02-04T06:26:56;7.13;;;2.70;;
68353;SDS011;55274;43.060;25.618;2024-02-04T06:29:22;7.90;;;2.05;;
68353;SDS011;55274;43.060;25.618;2024-02-04T06:31:48;5.43;;;2.47;;
68353;SDS011;55274;43.060;25.618;2024-02-04T06:34:13;9.25;;;3.38;;
68353;SDS011;55274;43.060;25.618;2024-02-04T06:36:43;8.65;;;2.70;;
68353;SDS011;55274;43.060;25.618;2024-02-04T06:39:09;8.00;;;3.25;;
68353;SDS011;55274;43.060;25.618;2024-02-04T06:41:36;11.75;;;3.88;;
68353;SDS011;55274;43.060;25.618;2024-02-04T06:44:05;6.88;;;3.33;;
68353;SDS011;55274;43.060;25.618;2024-02-04T06:46:31;4.28;;;2.70;;
68353;SDS011;55274;43.060;25.618;2024-02-04T06:48:57;6.85;;;3.30;;
68353;SDS011;55274;43.060;25.618;2024-02-04T06:51:23;6.45;;;3.03;;
68353;SDS011;55274;43.060;25.618;2024-02-04T06:53:49;6.50;;;3.20;;
68353;SDS011;55274;43.060;25.618;2024-02-04T06:56:14;8.23;;;3.08;;
68353;SDS011;55274;43.060;25.618;2024-02-04T06:58:41;14.18;;;3.58;;
68353;SDS011;55274;43.060;25.618;2024-02-04T07:01:07;5.38;;;3.00;;
68353;SDS011;55274;43.060;25.618;2024-02-04T07:03:33;7.93;;;3.28;;
68353;SDS011;55274;43.060;25.618;2024-02-04T07:05:59;5.32;;;2.53;;
68353;SDS011;55274;43.060;25.618;2024-02-04T07:08:25;4.95;;;2.50;;
68353;SDS011;55274;43.060;25.618;2024-02-04T07:10:51;4.40;;;2.20;;
68353;SDS011;55274;43.060;25.618;2024-02-04T07:13:18;4.88;;;2.50;;
68353;SDS011;55274;43.060;25.618;2024-02-04T07:15:44;6.85;;;3.20;;
68353;SDS011;55274;43.060;25.618;2024-02-04T07:18:10;7.32;;;2.53;;
68353;SDS011;55274;43.060;25.618;2024-02-04T07:20:36;4.13;;;1.70;;
68353;SDS011;55274;43.060;25.618;2024-02-04T07:23:03;4.60;;;1.55;;
68353;SDS011;55274;43.060;25.618;2024-02-04T07:25:29;6.97;;;3.33;;
68353;SDS011;55274;43.060;25.618;2024-02-04T07:27:55;7.50;;;3.35;;
68353;SDS011;55274;43.060;25.618;2024-02-04T07:30:22;5.72;;;3.00;;
68353;SDS011;55274;43.060;25.618;2024-02-04T07:32:48;18.48;;;7.18;;
68353;SDS011;55274;43.060;25.618;2024-02-04T07:35:14;12.40;;;4.75;;
68353;SDS011;55274;43.060;25.618;2024-02-04T07:37:40;9.45;;;4.00;;
68353;SDS011;55274;43.060;25.618;2024-02-04T07:40:06;8.00;;;2.70;;
68353;SDS011;55274;43.060;25.618;2024-02-04T07:42:32;4.53;;;2.40;;
68353;SDS011;55274;43.060;25.618;2024-02-04T07:44:58;4.10;;;2.25;;
68353;SDS011;55274;43.060;25.618;2024-02-04T07:47:24;6.80;;;3.67;;
68353;SDS011;55274;43.060;25.618;2024-02-04T07:49:50;6.35;;;2.50;;
68353;SDS011;55274;43.060;25.618;2024-02-04T07:52:16;10.30;;;5.00;;
68353;SDS011;55274;43.060;25.618;2024-02-04T07:54:42;7.78;;;2.50;;
68353;SDS011;55274;43.060;25.618;2024-02-04T07:57:09;7.70;;;4.38;;
68353;SDS011;55274;43.060;25.618;2024-02-04T07:59:35;3.42;;;2.28;;
68353;SDS011;55274;43.060;25.618;2024-02-04T08:02:01;3.67;;;1.90;;
68353;SDS011;55274;43.060;25.618;2024-02-04T08:04:27;4.32;;;2.20;;
68353;SDS011;55274;43.060;25.618;2024-02-04T08:06:53;5.55;;;3.20;;
68353;SDS011;55274;43.060;25.618;2024-02-04T08:09:19;13.18;;;5.07;;
68353;SDS011;55274;43.060;25.618;2024-02-04T08:11:45;13.70;;;4.90;;
68353;SDS011;55274;43.060;25.618;2024-02-04T08:14:12;6.53;;;2.55;;
68353;SDS011;55274;43.060;25.618;2024-02-04T08:16:39;9.23;;;4.22;;
68353;SDS011;55274;43.060;25.618;2024-02-04T08:19:07;7.53;;;2.72;;
68353;SDS011;55274;43.060;25.618;2024-02-04T08:21:33;7.53;;;3.70;;
68353;SDS011;55274;43.060;25.618;2024-02-04T08:23:59;5.10;;;3.00;;
68353;SDS011;55274;43.060;25.618;2024-02-04T08:26:25;4.55;;;2.38;;
68353;SDS011;55274;43.060;25.618;2024-02-04T08:28:51;4.97;;;2.58;;
68353;SDS011;55274;43.060;25.618;2024-02-04T08:31:16;3.95;;;2.30;;
68353;SDS011;55274;43.060;25.618;2024-02-04T08:33:42;3.25;;;1.60;;
68353;SDS011;55274;43.060;25.618;2024-02-04T08:36:08;4.85;;;2.80;;
68353;SDS011;55274;43.060;25.618;2024-02-04T08:38:38;10.93;;;4.65;;
68353;SDS011;55274;43.060;25.618;2024-02-04T08:41:04;8.30;;;3.60;;
68353;SDS011;55274;43.060;25.618;2024-02-04T08:43:32;21.75;;;2.47;;
68353;SDS011;55274;43.060;25.618;2024-02-04T08:45:57;10.55;;;2.47;;
68353;SDS011;55274;43.060;25.618;2024-02-04T08:48:23;8.15;;;3.78;;
68353;SDS011;55274;43.060;25.618;2024-02-04T08:50:49;4.45;;;2.70;;
68353;SDS011;55274;43.060;25.618;2024-02-04T08:53:15;7.57;;;2.95;;
68353;SDS011;55274;43.060;25.618;2024-02-04T08:55:41;3.97;;;1.98;;
68353;SDS011;55274;43.060;25.618;2024-02-04T08:58:06;7.80;;;2.63;;
68353;SDS011;55274;43.060;25.618;2024-02-04T09:00:32;9.07;;;2.15;;
68353;SDS011;55274;43.060;25.618;2024-02-04T09:02:58;13.60;;;3.15;;
68353;SDS011;55274;43.060;25.618;2024-02-04T09:05:24;12.88;;;3.88;;
68353;SDS011;55274;43.060;25.618;2024-02-04T09:07:49;5.35;;;1.90;;
68353;SDS011;55274;43.060;25.618;2024-02-04T09:10:16;8.07;;;3.00;;
68353;SDS011;55274;43.060;25.618;2024-02-04T09:12:42;6.50;;;1.90;;
68353;SDS011;55274;43.060;25.618;2024-02-04T09:15:08;8.27;;;4.18;;
68353;SDS011;55274;43.060;25.618;2024-02-04T09:17:34;8.00;;;4.32;;
68353;SDS011;55274;43.060;25.618;2024-02-04T09:20:00;9.38;;;3.10;;
68353;SDS011;55274;43.060;25.618;2024-02-04T09:22:26;4.78;;;2.33;;
68353;SDS011;55274;43.060;25.618;2024-02-04T09:24:52;6.03;;;3.38;;
68353;SDS011;55274;43.060;25.618;2024-02-04T09:27:17;8.00;;;2.28;;
68353;SDS011;55274;43.060;25.618;2024-02-04T09:29:43;7.15;;;2.15;;
68353;SDS011;55274;43.060;25.618;2024-02-04T09:32:09;4.13;;;2.35;;
68353;SDS011;55274;43.060;25.618;2024-02-04T09:34:35;7.80;;;1.98;;
68353;SDS011;55274;43.060;25.618;2024-02-04T09:37:01;4.38;;;2.83;;
68353;SDS011;55274;43.060;25.618;2024-02-04T09:39:27;4.05;;;1.98;;
68353;SDS011;55274;43.060;25.618;2024-02-04T09:41:55;3.78;;;2.08;;
68353;SDS011;55274;43.060;25.618;2024-02-04T09:44:22;4.10;;;1.73;;
68353;SDS011;55274;43.060;25.618;2024-02-04T09:46:49;3.35;;;1.88;;
68353;SDS011;55274;43.060;25.618;2024-02-04T09:49:15;7.38;;;2.53;;
68353;SDS011;55274;43.060;25.618;2024-02-04T09:51:41;4.30;;;2.15;;
68353;SDS011;55274;43.060;25.618;2024-02-04T09:54:08;10.98;;;2.90;;
68353;SDS011;55274;43.060;25.618;2024-02-04T09:56:36;4.10;;;1.48;;
68353;SDS011;55274;43.060;25.618;2024-02-04T09:59:03;2.65;;;1.67;;
68353;SDS011;55274;43.060;25.618;2024-02-04T10:01:30;5.22;;;1.90;;
68353;SDS011;55274;43.060;25.618;2024-02-04T10:03:57;9.38;;;3.90;;
68353;SDS011;55274;43.060;25.618;2024-02-04T10:06:23;3.72;;;1.75;;
68353;SDS011;55274;43.060;25.618;2024-02-04T10:08:49;7.90;;;4.38;;
68353;SDS011;55274;43.060;25.618;2024-02-04T10:11:16;6.53;;;2.20;;
68353;SDS011;55274;43.060;25.618;2024-02-04T10:13:45;4.25;;;1.95;;
68353;SDS011;55274;43.060;25.618;2024-02-04T10:16:13;6.07;;;2.00;;
68353;SDS011;55274;43.060;25.618;2024-02-04T10:18:43;2.90;;;1.70;;
68353;SDS011;55274;43.060;25.618;2024-02-04T10:21:19;7.30;;;2.88;;
68353;SDS011;55274;43.060;25.618;2024-02-04T10:23:48;6.13;;;3.50;;
68353;SDS011;55274;43.060;25.618;2024-02-04T10:26:15;6.13;;;3.13;;
68353;SDS011;55274;43.060;25.618;2024-02-04T10:28:41;4.75;;;2.00;;
68353;SDS011;55274;43.060;25.618;2024-02-04T10:31:09;19.67;;;2.20;;
68353;SDS011;55274;43.060;25.618;2024-02-04T10:33:35;3.45;;;1.80;;
68353;SDS011;55274;43.060;25.618;2024-02-04T10:36:02;7.80;;;3.00;;
68353;SDS011;55274;43.060;25.618;2024-02-04T10:38:28;5.63;;;2.00;;
68353;SDS011;55274;43.060;25.618;2024-02-04T10:40:55;9.18;;;2.00;;
68353;SDS011;55274;43.060;25.618;2024-02-04T10:43:24;6.72;;;1.75;;
68353;SDS011;55274;43.060;25.618;2024-02-04T10:45:55;4.03;;;1.80;;
68353;SDS011;55274;43.060;25.618;2024-02-04T10:48:22;3.95;;;1.90;;
68353;SDS011;55274;43.060;25.618;2024-02-04T10:50:52;4.78;;;1.80;;
68353;SDS011;55274;43.060;25.618;2024-02-04T10:53:21;13.50;;;3.35;;
68353;SDS011;55274;43.060;25.618;2024-02-04T10:55:47;8.50;;;4.97;;
68353;SDS011;55274;43.060;25.618;2024-02-04T10:58:17;8.23;;;5.65;;
68353;SDS011;55274;43.060;25.618;2024-02-04T11:00:44;3.75;;;2.22;;
68353;SDS011;55274;43.060;25.618;2024-02-04T11:03:11;4.68;;;1.73;;
68353;SDS011;55274;43.060;25.618;2024-02-04T11:05:40;4.65;;;1.75;;
68353;SDS011;55274;43.060;25.618;2024-02-04T11:08:07;9.30;;;3.65;;
68353;SDS011;55274;43.060;25.618;2024-02-04T11:10:36;8.32;;;2.40;;
68353;SDS011;55274;43.060;25.618;2024-02-04T11:13:04;4.22;;;1.48;;
68353;SDS011;55274;43.060;25.618;2024-02-04T11:15:35;26.98;;;3.33;;
68353;SDS011;55274;43.060;25.618;2024-02-04T11:26:22;8.23;;;3.50;;
68353;SDS011;55274;43.060;25.618;2024-02-04T11:28:48;13.65;;;5.70;;
68353;SDS011;55274;43.060;25.618;2024-02-04T11:31:15;6.15;;;2.35;;
68353;SDS011;55274;43.060;25.618;2024-02-04T11:33:43;19.30;;;5.93;;
68353;SDS011;55274;43.060;25.618;2024-02-04T11:36:13;12.40;;;5.60;;
68353;SDS011;55274;43.060;25.618;2024-02-04T11:38:40;8.80;;;3.80;;
68353;SDS011;55274;43.060;25.618;2024-02-04T11:41:06;9.25;;;4.63;;
68353;SDS011;55274;43.060;25.618;2024-02-04T11:43:33;9.73;;;2.65;;
68353;SDS011;55274;43.060;25.618;2024-02-04T11:46:00;5.43;;;1.95;;
68353;SDS011;55274;43.060;25.618;2024-02-04T11:48:32;2.35;;;1.52;;
68353;SDS011;55274;43.060;25.618;2024-02-04T11:50:59;8.90;;;3.95;;
68353;SDS011;55274;43.060;25.618;2024-02-04T11:53:28;7.10;;;3.22;;
68353;SDS011;55274;43.060;25.618;2024-02-04T11:55:57;9.35;;;4.72;;
68353;SDS011;55274;43.060;25.618;2024-02-04T11:58:25;9.48;;;3.97;;
68353;SDS011;55274;43.060;25.618;2024-02-04T12:00:52;9.00;;;3.55;;
68353;SDS011;55274;43.060;25.618;2024-02-04T12:03:29;13.65;;;6.20;;
68353;SDS011;55274;43.060;25.618;2024-02-04T12:05:57;10.05;;;3.17;;
68353;SDS011;55274;43.060;25.618;2024-02-04T12:08:24;7.22;;;4.05;;
68353;SDS011;55274;43.060;25.618;2024-02-04T12:10:52;6.05;;;1.90;;
68353;SDS011;55274;43.060;25.618;2024-02-04T12:13:18;6.93;;;2.10;;
68353;SDS011;55274;43.060;25.618;2024-02-04T12:15:45;2.33;;;1.30;;
68353;SDS011;55274;43.060;25.618;2024-02-04T12:18:12;3.45;;;1.50;;
68353;SDS011;55274;43.060;25.618;2024-02-04T12:20:39;13.00;;;1.88;;
68353;SDS011;55274;43.060;25.618;2024-02-04T12:23:05;4.65;;;1.90;;
68353;SDS011;55274;43.060;25.618;2024-02-04T12:25:32;2.20;;;1.48;;
68353;SDS011;55274;43.060;25.618;2024-02-04T12:27:59;4.57;;;2.55;;
68353;SDS011;55274;43.060;25.618;2024-02-04T12:30:28;4.53;;;1.38;;
68353;SDS011;55274;43.060;25.618;2024-02-04T12:32:55;3.67;;;1.83;;
68353;SDS011;55274;43.060;25.618;2024-02-04T12:35:29;3.25;;;1.50;;
68353;SDS011;55274;43.060;25.618;2024-02-04T12:37:56;4.68;;;1.40;;
68353;SDS011;55274;43.060;25.618;2024-02-04T12:42:59;5.55;;;2.40;;
68353;SDS011;55274;43.060;25.618;2024-02-04T12:45:29;8.27;;;3.78;;
68353;SDS011;55274;43.060;25.618;2024-02-04T12:47:56;7.22;;;4.18;;
68353;SDS011;55274;43.060;25.618;2024-02-04T12:50:23;5.88;;;2.80;;
68353;SDS011;55274;43.060;25.618;2024-02-04T12:53:02;4.22;;;2.17;;
68353;SDS011;55274;43.060;25.618;2024-02-04T12:55:31;12.73;;;6.03;;
68353;SDS011;55274;43.060;25.618;2024-02-04T13:00:35;25.67;;;3.08;;
68353;SDS011;55274;43.060;25.618;2024-02-04T13:03:02;2.47;;;1.40;;
68353;SDS011;55274;43.060;25.618;2024-02-04T13:05:29;4.20;;;2.15;;
68353;SDS011;55274;43.060;25.618;2024-02-04T13:07:59;7.47;;;4.10;;
68353;SDS011;55274;43.060;25.618;2024-02-04T13:10:33;22.98;;;3.20;;
68353;SDS011;55274;43.060;25.618;2024-02-04T13:15:27;13.07;;;8.02;;
68353;SDS011;55274;43.060;25.618;2024-02-04T13:17:56;18.77;;;9.55;;
68353;SDS011;55274;43.060;25.618;2024-02-04T13:20:22;3.33;;;1.98;;
68353;SDS011;55274;43.060;25.618;2024-02-04T13:22:48;7.32;;;4.32;;
68353;SDS011;55274;43.060;25.618;2024-02-04T13:25:14;12.80;;;6.07;;
68353;SDS011;55274;43.060;25.618;2024-02-04T13:27:40;15.10;;;7.15;;
68353;SDS011;55274;43.060;25.618;2024-02-04T13:30:07;9.70;;;3.65;;
68353;SDS011;55274;43.060;25.618;2024-02-04T13:32:40;10.40;;;5.13;;
68353;SDS011;55274;43.060;25.618;2024-02-04T13:35:07;9.00;;;4.72;;
68353;SDS011;55274;43.060;25.618;2024-02-04T13:37:39;12.70;;;6.70;;
68353;SDS011;55274;43.060;25.618;2024-02-04T13:40:06;9.38;;;3.80;;
68353;SDS011;55274;43.060;25.618;2024-02-04T13:42:34;14.27;;;7.05;;
68353;SDS011;55274;43.060;25.618;2024-02-04T13:45:01;10.55;;;6.00;;
68353;SDS011;55274;43.060;25.618;2024-02-04T13:47:28;19.58;;;6.20;;
68353;SDS011;55274;43.060;25.618;2024-02-04T13:49:54;10.32;;;4.43;;
68353;SDS011;55274;43.060;25.618;2024-02-04T13:52:21;6.40;;;3.08;;
68353;SDS011;55274;43.060;25.618;2024-02-04T13:54:47;11.57;;;3.83;;
68353;SDS011;55274;43.060;25.618;2024-02-04T13:57:13;7.55;;;3.47;;
68353;SDS011;55274;43.060;25.618;2024-02-04T13:59:39;2.55;;;1.25;;
68353;SDS011;55274;43.060;25.618;2024-02-04T14:02:05;3.15;;;1.67;;
68353;SDS011;55274;43.060;25.618;2024-02-04T14:04:33;5.53;;;2.47;;
68353;SDS011;55274;43.060;25.618;2024-02-04T14:06:59;4.25;;;1.52;;
68353;SDS011;55274;43.060;25.618;2024-02-04T14:09:26;4.63;;;2.35;;
68353;SDS011;55274;43.060;25.618;2024-02-04T14:11:52;4.57;;;2.20;;
68353;SDS011;55274;43.060;25.618;2024-02-04T14:14:20;3.17;;;1.30;;
68353;SDS011;55274;43.060;25.618;2024-02-04T14:16:48;3.80;;;1.40;;
68353;SDS011;55274;43.060;25.618;2024-02-04T14:19:14;7.97;;;2.53;;
68353;SDS011;55274;43.060;25.618;2024-02-04T14:21:43;7.55;;;3.10;;
68353;SDS011;55274;43.060;25.618;2024-02-04T14:24:09;2.20;;;1.20;;
68353;SDS011;55274;43.060;25.618;2024-02-04T14:26:35;4.00;;;1.60;;
68353;SDS011;55274;43.060;25.618;2024-02-04T14:29:01;3.92;;;2.03;;
68353;SDS011;55274;43.060;25.618;2024-02-04T14:31:27;12.00;;;5.35;;
68353;SDS011;55274;43.060;25.618;2024-02-04T14:33:52;15.68;;;6.82;;
68353;SDS011;55274;43.060;25.618;2024-02-04T14:36:18;18.00;;;3.83;;
68353;SDS011;55274;43.060;25.618;2024-02-04T14:38:44;10.20;;;3.72;;
68353;SDS011;55274;43.060;25.618;2024-02-04T14:41:10;11.05;;;3.20;;
68353;SDS011;55274;43.060;25.618;2024-02-04T14:43:37;9.60;;;3.75;;